Aviation Digital Data Service (ADDS)

Output produced by METARs form (2038 UTC 17 June 2019)
found at http://www.aviationweather.gov/metar/data/
 
METAR text: KORD 171951Z 04007KT 10SM OVC020 19/13 A3000 RMK AO2 SLP156 T01940133
Conditions at: KORD (CHICAGO O'HARE , IL, US) observed 1951 UTC 17 June 2019
Temperature: 19.4°C (67°F)
Dewpoint: 13.3°C (56°F) [RH = 68%]
Pressure (altimeter): 30.00 inches Hg (1016.0 mb)
[Sea-level pressure: 1015.6 mb]
Winds: from the NE (40 degrees) at 8 MPH (7 knots; 3.6 m/s)
Visibility: 10 or more miles (16+ km)
Ceiling: 2000 feet AGL
Clouds: overcast cloud deck at 2000 feet AGL
Weather: no significant weather observed at this time

METAR text: KORD 171851Z 03007KT 10SM OVC020 19/14 A3000 RMK AO2 SLP158 T01890139
Conditions at: KORD (CHICAGO O'HARE , IL, US) observed 1851 UTC 17 June 2019
Temperature: 18.9°C (66°F)
Dewpoint: 13.9°C (57°F) [RH = 73%]
Pressure (altimeter): 30.00 inches Hg (1016.0 mb)
[Sea-level pressure: 1015.8 mb]
Winds: from the NNE (30 degrees) at 8 MPH (7 knots; 3.6 m/s)
Visibility: 10 or more miles (16+ km)
Ceiling: 2000 feet AGL
Clouds: overcast cloud deck at 2000 feet AGL
Weather: no significant weather observed at this time

METAR text: KORD 171751Z 05007KT 10SM OVC019 19/13 A3001 RMK AO2 SLP162 T01890133 10189 20133 58002
Conditions at: KORD (CHICAGO O'HARE , IL, US) observed 1751 UTC 17 June 2019
Temperature: 18.9°C (66°F)
Dewpoint: 13.3°C (56°F) [RH = 70%]
Pressure (altimeter): 30.01 inches Hg (1016.3 mb)
[Sea-level pressure: 1016.2 mb]
Winds: from the NE (50 degrees) at 8 MPH (7 knots; 3.6 m/s)
Visibility: 10 or more miles (16+ km)
Ceiling: 1900 feet AGL
Clouds: overcast cloud deck at 1900 feet AGL
Weather: no significant weather observed at this time

METAR text: KORD 171651Z 06007KT 10SM OVC017 18/13 A3002 RMK AO2 SLP165 T01830133
Conditions at: KORD (CHICAGO O'HARE , IL, US) observed 1651 UTC 17 June 2019
Temperature: 18.3°C (65°F)
Dewpoint: 13.3°C (56°F) [RH = 73%]
Pressure (altimeter): 30.02 inches Hg (1016.7 mb)
[Sea-level pressure: 1016.5 mb]
Winds: from the ENE (60 degrees) at 8 MPH (7 knots; 3.6 m/s)
Visibility: 10 or more miles (16+ km)
Ceiling: 1700 feet AGL
Clouds: overcast cloud deck at 1700 feet AGL
Weather: no significant weather observed at this time

METAR text: KORD 171551Z 02008KT 10SM OVC016 17/13 A3001 RMK AO2 SLP162 T01720128
Conditions at: KORD (CHICAGO O'HARE , IL, US) observed 1551 UTC 17 June 2019
Temperature: 17.2°C (63°F)
Dewpoint: 12.8°C (55°F) [RH = 75%]
Pressure (altimeter): 30.01 inches Hg (1016.3 mb)
[Sea-level pressure: 1016.2 mb]
Winds: from the NNE (20 degrees) at 9 MPH (8 knots; 4.1 m/s)
Visibility: 10 or more miles (16+ km)
Ceiling: 1600 feet AGL
Clouds: overcast cloud deck at 1600 feet AGL
Weather: no significant weather observed at this time

METAR text: KORD 171533Z 01008KT 10SM OVC016 17/12 A3001 RMK AO2 T01670122
Conditions at: KORD (CHICAGO O'HARE , IL, US) observed 1533 UTC 17 June 2019
Temperature: 16.7°C (62°F)
Dewpoint: 12.2°C (54°F) [RH = 75%]
Pressure (altimeter): 30.01 inches Hg (1016.3 mb)
Winds: from the N (10 degrees) at 9 MPH (8 knots; 4.1 m/s)
Visibility: 10 or more miles (16+ km)
Ceiling: 1600 feet AGL
Clouds: overcast cloud deck at 1600 feet AGL
Weather: no significant weather observed at this time

METAR text: KORD 171451Z 06007KT 10SM OVC014 16/12 A3002 RMK AO2 SLP164 T01560117 53011
Conditions at: KORD (CHICAGO O'HARE , IL, US) observed 1451 UTC 17 June 2019
Temperature: 15.6°C (60°F)
Dewpoint: 11.7°C (53°F) [RH = 78%]
Pressure (altimeter): 30.02 inches Hg (1016.7 mb)
[Sea-level pressure: 1016.4 mb]
Winds: from the ENE (60 degrees) at 8 MPH (7 knots; 3.6 m/s)
Visibility: 10 or more miles (16+ km)
Ceiling: 1400 feet AGL
Clouds: overcast cloud deck at 1400 feet AGL
Weather: no significant weather observed at this time

METAR text: KORD 171351Z 02007KT 10SM OVC012 14/12 A3000 RMK AO2 SLP160 T01440117
Conditions at: KORD (CHICAGO O'HARE , IL, US) observed 1351 UTC 17 June 2019
Temperature: 14.4°C (58°F)
Dewpoint: 11.7°C (53°F) [RH = 84%]
Pressure (altimeter): 30.00 inches Hg (1016.0 mb)
[Sea-level pressure: 1016.0 mb]
Winds: from the NNE (20 degrees) at 8 MPH (7 knots; 3.6 m/s)
Visibility: 10 or more miles (16+ km)
Ceiling: 1200 feet AGL
Clouds: overcast cloud deck at 1200 feet AGL
Weather: no significant weather observed at this time

METAR text: KORD 171251Z 02008KT 10SM OVC010 14/11 A2999 RMK AO2 SLP157 T01390106
Conditions at: KORD (CHICAGO O'HARE , IL, US) observed 1251 UTC 17 June 2019
Temperature: 13.9°C (57°F)
Dewpoint: 10.6°C (51°F) [RH = 80%]
Pressure (altimeter): 29.99 inches Hg (1015.7 mb)
[Sea-level pressure: 1015.7 mb]
Winds: from the NNE (20 degrees) at 9 MPH (8 knots; 4.1 m/s)
Visibility: 10 or more miles (16+ km)
Ceiling: 1000 feet AGL
Clouds: overcast cloud deck at 1000 feet AGL
Weather: no significant weather observed at this time

METAR text: KORD 171207Z 01007KT 10SM OVC010 13/11 A2999 RMK AO2 T01330106
Conditions at: KORD (CHICAGO O'HARE , IL, US) observed 1207 UTC 17 June 2019
Temperature: 13.3°C (56°F)
Dewpoint: 10.6°C (51°F) [RH = 84%]
Pressure (altimeter): 29.99 inches Hg (1015.7 mb)
Winds: from the N (10 degrees) at 8 MPH (7 knots; 3.6 m/s)
Visibility: 10 or more miles (16+ km)
Ceiling: 1000 feet AGL
Clouds: overcast cloud deck at 1000 feet AGL
Weather: no significant weather observed at this time

METAR text: KORD 171151Z 01008KT 10SM OVC009 13/11 A2999 RMK AO2 CIG 008V013 SLP154 T01280106 10133 20128 53017
Conditions at: KORD (CHICAGO O'HARE , IL, US) observed 1151 UTC 17 June 2019
Temperature: 12.8°C (55°F)
Dewpoint: 10.6°C (51°F) [RH = 86%]
Pressure (altimeter): 29.99 inches Hg (1015.7 mb)
[Sea-level pressure: 1015.4 mb]
Winds: from the N (10 degrees) at 9 MPH (8 knots; 4.1 m/s)
Visibility: 10 or more miles (16+ km)
Ceiling: 900 feet AGL
Clouds: overcast cloud deck at 900 feet AGL
Weather: no significant weather observed at this time

METAR text: KORD 171051Z 02005KT 6SM BR OVC008 13/11 A2997 RMK AO2 SLP148 T01280106
Conditions at: KORD (CHICAGO O'HARE , IL, US) observed 1051 UTC 17 June 2019
Temperature: 12.8°C (55°F)
Dewpoint: 10.6°C (51°F) [RH = 86%]
Pressure (altimeter): 29.97 inches Hg (1015.0 mb)
[Sea-level pressure: 1014.8 mb]
Winds: from the NNE (20 degrees) at 6 MPH (5 knots; 2.6 m/s)
Visibility: 6 miles (10 km)
Ceiling: 800 feet AGL
Clouds: overcast cloud deck at 800 feet AGL
Weather: BR  (mist)

METAR text: KORD 171002Z 03006KT 10SM OVC008 13/10 A2996 RMK AO2 T01280100
Conditions at: KORD (CHICAGO O'HARE , IL, US) observed 1002 UTC 17 June 2019
Temperature: 12.8°C (55°F)
Dewpoint: 10.0°C (50°F) [RH = 83%]
Pressure (altimeter): 29.96 inches Hg (1014.6 mb)
Winds: from the NNE (30 degrees) at 7 MPH (6 knots; 3.1 m/s)
Visibility: 10 or more miles (16+ km)
Ceiling: 800 feet AGL
Clouds: overcast cloud deck at 800 feet AGL
Weather: no significant weather observed at this time

METAR text: KORD 170951Z 01009KT 10SM OVC010 13/10 A2995 RMK AO2 SLP142 T01280100
Conditions at: KORD (CHICAGO O'HARE , IL, US) observed 0951 UTC 17 June 2019
Temperature: 12.8°C (55°F)
Dewpoint: 10.0°C (50°F) [RH = 83%]
Pressure (altimeter): 29.95 inches Hg (1014.3 mb)
[Sea-level pressure: 1014.2 mb]
Winds: from the N (10 degrees) at 10 MPH (9 knots; 4.6 m/s)
Visibility: 10 or more miles (16+ km)
Ceiling: 1000 feet AGL
Clouds: overcast cloud deck at 1000 feet AGL
Weather: no significant weather observed at this time

METAR text: KORD 170851Z 01009KT 10SM OVC010 13/10 A2993 RMK AO2 SLP137 T01330100 53003
Conditions at: KORD (CHICAGO O'HARE , IL, US) observed 0851 UTC 17 June 2019
Temperature: 13.3°C (56°F)
Dewpoint: 10.0°C (50°F) [RH = 80%]
Pressure (altimeter): 29.93 inches Hg (1013.6 mb)
[Sea-level pressure: 1013.7 mb]
Winds: from the N (10 degrees) at 10 MPH (9 knots; 4.6 m/s)
Visibility: 10 or more miles (16+ km)
Ceiling: 1000 feet AGL
Clouds: overcast cloud deck at 1000 feet AGL
Weather: no significant weather observed at this time

METAR text: KORD 170751Z 04007KT 10SM OVC010 13/11 A2993 RMK AO2 SLP136 T01330106
Conditions at: KORD (CHICAGO O'HARE , IL, US) observed 0751 UTC 17 June 2019
Temperature: 13.3°C (56°F)
Dewpoint: 10.6°C (51°F) [RH = 84%]
Pressure (altimeter): 29.93 inches Hg (1013.6 mb)
[Sea-level pressure: 1013.6 mb]
Winds: from the NE (40 degrees) at 8 MPH (7 knots; 3.6 m/s)
Visibility: 10 or more miles (16+ km)
Ceiling: 1000 feet AGL
Clouds: overcast cloud deck at 1000 feet AGL
Weather: no significant weather observed at this time

METAR text: KORD 170730Z 03006KT 10SM OVC010 13/11 A2993 RMK AO2 T01330106
Conditions at: KORD (CHICAGO O'HARE , IL, US) observed 0730 UTC 17 June 2019
Temperature: 13.3°C (56°F)
Dewpoint: 10.6°C (51°F) [RH = 84%]
Pressure (altimeter): 29.93 inches Hg (1013.6 mb)
Winds: from the NNE (30 degrees) at 7 MPH (6 knots; 3.1 m/s)
Visibility: 10 or more miles (16+ km)
Ceiling: 1000 feet AGL
Clouds: overcast cloud deck at 1000 feet AGL
Weather: no significant weather observed at this time

METAR text: KORD 170651Z 01007KT 10SM OVC009 13/11 A2993 RMK AO2 SLP134 T01330111
Conditions at: KORD (CHICAGO O'HARE , IL, US) observed 0651 UTC 17 June 2019
Temperature: 13.3°C (56°F)
Dewpoint: 11.1°C (52°F) [RH = 87%]
Pressure (altimeter): 29.93 inches Hg (1013.6 mb)
[Sea-level pressure: 1013.4 mb]
Winds: from the N (10 degrees) at 8 MPH (7 knots; 3.6 m/s)
Visibility: 10 or more miles (16+ km)
Ceiling: 900 feet AGL
Clouds: overcast cloud deck at 900 feet AGL
Weather: no significant weather observed at this time

METAR text: KORD 170605Z 02008KT 10SM OVC009 13/11 A2993 RMK AO2 T01330106
Conditions at: KORD (CHICAGO O'HARE , IL, US) observed 0605 UTC 17 June 2019
Temperature: 13.3°C (56°F)
Dewpoint: 10.6°C (51°F) [RH = 84%]
Pressure (altimeter): 29.93 inches Hg (1013.6 mb)
Winds: from the NNE (20 degrees) at 9 MPH (8 knots; 4.1 m/s)
Visibility: 10 or more miles (16+ km)
Ceiling: 900 feet AGL
Clouds: overcast cloud deck at 900 feet AGL
Weather: no significant weather observed at this time

METAR text: KORD 170551Z 03008KT 10SM OVC010 13/11 A2992 RMK AO2 SLP133 T01330106 10139 20128 401560122 58003
Conditions at: KORD (CHICAGO O'HARE , IL, US) observed 0551 UTC 17 June 2019
Temperature: 13.3°C (56°F)
Dewpoint: 10.6°C (51°F) [RH = 84%]
Pressure (altimeter): 29.92 inches Hg (1013.3 mb)
[Sea-level pressure: 1013.3 mb]
Winds: from the NNE (30 degrees) at 9 MPH (8 knots; 4.1 m/s)
Visibility: 10 or more miles (16+ km)
Ceiling: 1000 feet AGL
Clouds: overcast cloud deck at 1000 feet AGL
Weather: no significant weather observed at this time

METAR text: KORD 170529Z 02008KT 10SM OVC010 13/11 A2993 RMK AO2 T01330106
Conditions at: KORD (CHICAGO O'HARE , IL, US) observed 0529 UTC 17 June 2019
Temperature: 13.3°C (56°F)
Dewpoint: 10.6°C (51°F) [RH = 84%]
Pressure (altimeter): 29.93 inches Hg (1013.6 mb)
Winds: from the NNE (20 degrees) at 9 MPH (8 knots; 4.1 m/s)
Visibility: 10 or more miles (16+ km)
Ceiling: 1000 feet AGL
Clouds: overcast cloud deck at 1000 feet AGL
Weather: no significant weather observed at this time

METAR text: KORD 170451Z 01006KT 10SM OVC009 13/10 A2994 RMK AO2 SLP139 T01330100
Conditions at: KORD (CHICAGO O'HARE , IL, US) observed 0451 UTC 17 June 2019
Temperature: 13.3°C (56°F)
Dewpoint: 10.0°C (50°F) [RH = 80%]
Pressure (altimeter): 29.94 inches Hg (1014.0 mb)
[Sea-level pressure: 1013.9 mb]
Winds: from the N (10 degrees) at 7 MPH (6 knots; 3.1 m/s)
Visibility: 10 or more miles (16+ km)
Ceiling: 900 feet AGL
Clouds: overcast cloud deck at 900 feet AGL
Weather: no significant weather observed at this time

METAR text: KORD 170441Z 01007KT 10SM OVC009 13/10 A2995 RMK AO2 T01330100
Conditions at: KORD (CHICAGO O'HARE , IL, US) observed 0441 UTC 17 June 2019
Temperature: 13.3°C (56°F)
Dewpoint: 10.0°C (50°F) [RH = 80%]
Pressure (altimeter): 29.95 inches Hg (1014.3 mb)
Winds: from the N (10 degrees) at 8 MPH (7 knots; 3.6 m/s)
Visibility: 10 or more miles (16+ km)
Ceiling: 900 feet AGL
Clouds: overcast cloud deck at 900 feet AGL
Weather: no significant weather observed at this time

METAR text: KORD 170351Z 36009KT 10SM OVC012 13/10 A2995 RMK AO2 SLP143 T01280100
Conditions at: KORD (CHICAGO O'HARE , IL, US) observed 0351 UTC 17 June 2019
Temperature: 12.8°C (55°F)
Dewpoint: 10.0°C (50°F) [RH = 83%]
Pressure (altimeter): 29.95 inches Hg (1014.3 mb)
[Sea-level pressure: 1014.3 mb]
Winds: from the N (360 degrees) at 10 MPH (9 knots; 4.6 m/s)
Visibility: 10 or more miles (16+ km)
Ceiling: 1200 feet AGL
Clouds: overcast cloud deck at 1200 feet AGL
Weather: no significant weather observed at this time

METAR text: KORD 170251Z 36009KT 10SM OVC013 13/11 A2993 RMK AO2 SLP137 T01330106 53015
Conditions at: KORD (CHICAGO O'HARE , IL, US) observed 0251 UTC 17 June 2019
Temperature: 13.3°C (56°F)
Dewpoint: 10.6°C (51°F) [RH = 84%]
Pressure (altimeter): 29.93 inches Hg (1013.6 mb)
[Sea-level pressure: 1013.7 mb]
Winds: from the N (360 degrees) at 10 MPH (9 knots; 4.6 m/s)
Visibility: 10 or more miles (16+ km)
Ceiling: 1300 feet AGL
Clouds: overcast cloud deck at 1300 feet AGL
Weather: no significant weather observed at this time

METAR text: KORD 170151Z 03008KT 10SM OVC014 13/11 A2991 RMK AO2 SLP130 T01330106
Conditions at: KORD (CHICAGO O'HARE , IL, US) observed 0151 UTC 17 June 2019
Temperature: 13.3°C (56°F)
Dewpoint: 10.6°C (51°F) [RH = 84%]
Pressure (altimeter): 29.91 inches Hg (1013.0 mb)
[Sea-level pressure: 1013.0 mb]
Winds: from the NNE (30 degrees) at 9 MPH (8 knots; 4.1 m/s)
Visibility: 10 or more miles (16+ km)
Ceiling: 1400 feet AGL
Clouds: overcast cloud deck at 1400 feet AGL
Weather: no significant weather observed at this time

METAR text: KORD 170106Z 02013KT 10SM OVC013 13/11 A2990 RMK AO2 T01330106
Conditions at: KORD (CHICAGO O'HARE , IL, US) observed 0106 UTC 17 June 2019
Temperature: 13.3°C (56°F)
Dewpoint: 10.6°C (51°F) [RH = 84%]
Pressure (altimeter): 29.90 inches Hg (1012.6 mb)
Winds: from the NNE (20 degrees) at 15 MPH (13 knots; 6.7 m/s)
Visibility: 10 or more miles (16+ km)
Ceiling: 1300 feet AGL
Clouds: overcast cloud deck at 1300 feet AGL
Weather: no significant weather observed at this time

METAR text: KORD 170051Z 03011KT 10SM FEW011 BKN015 OVC030 13/11 A2990 RMK AO2 SLP125 T01330106
Conditions at: KORD (CHICAGO O'HARE , IL, US) observed 0051 UTC 17 June 2019
Temperature: 13.3°C (56°F)
Dewpoint: 10.6°C (51°F) [RH = 84%]
Pressure (altimeter): 29.90 inches Hg (1012.6 mb)
[Sea-level pressure: 1012.5 mb]
Winds: from the NNE (30 degrees) at 13 MPH (11 knots; 5.7 m/s)
Visibility: 10 or more miles (16+ km)
Ceiling: 1500 feet AGL
Clouds: few clouds at 1100 feet AGL
broken clouds at 1500 feet AGL
overcast cloud deck at 3000 feet AGL
Weather: no significant weather observed at this time

METAR text: KORD 170010Z 03013KT 10SM SCT011 BKN023 BKN031 14/11 A2988 RMK AO2 T01390106
Conditions at: KORD (CHICAGO O'HARE , IL, US) observed 0010 UTC 17 June 2019
Temperature: 13.9°C (57°F)
Dewpoint: 10.6°C (51°F) [RH = 80%]
Pressure (altimeter): 29.88 inches Hg (1011.9 mb)
Winds: from the NNE (30 degrees) at 15 MPH (13 knots; 6.7 m/s)
Visibility: 10 or more miles (16+ km)
Ceiling: 2300 feet AGL
Clouds: scattered clouds at 1100 feet AGL
broken clouds at 2300 feet AGL
broken clouds at 3100 feet AGL
Weather: no significant weather observed at this time

METAR text: KORD 162351Z 02012KT 10SM BKN011 OVC032 13/11 A2989 RMK AO2 SLP121 T01330106 10144 20128 50001
Conditions at: KORD (CHICAGO O'HARE , IL, US) observed 2351 UTC 16 June 2019
Temperature: 13.3°C (56°F)
Dewpoint: 10.6°C (51°F) [RH = 84%]
Pressure (altimeter): 29.89 inches Hg (1012.3 mb)
[Sea-level pressure: 1012.1 mb]
Winds: from the NNE (20 degrees) at 14 MPH (12 knots; 6.2 m/s)
Visibility: 10 or more miles (16+ km)
Ceiling: 1100 feet AGL
Clouds: broken clouds at 1100 feet AGL
overcast cloud deck at 3200 feet AGL
Weather: no significant weather observed at this time

METAR text: KORD 162316Z 02010KT 10SM BKN010 OVC023 14/11 A2990 RMK AO2 T01390106
Conditions at: KORD (CHICAGO O'HARE , IL, US) observed 2316 UTC 16 June 2019
Temperature: 13.9°C (57°F)
Dewpoint: 10.6°C (51°F) [RH = 80%]
Pressure (altimeter): 29.90 inches Hg (1012.6 mb)
Winds: from the NNE (20 degrees) at 12 MPH (10 knots; 5.1 m/s)
Visibility: 10 or more miles (16+ km)
Ceiling: 1000 feet AGL
Clouds: broken clouds at 1000 feet AGL
overcast cloud deck at 2300 feet AGL
Weather: no significant weather observed at this time

METAR text: KORD 162251Z 03011KT 10SM BKN008 OVC012 13/11 A2990 RMK AO2 SLP126 T01330111
Conditions at: KORD (CHICAGO O'HARE , IL, US) observed 2251 UTC 16 June 2019
Temperature: 13.3°C (56°F)
Dewpoint: 11.1°C (52°F) [RH = 87%]
Pressure (altimeter): 29.90 inches Hg (1012.6 mb)
[Sea-level pressure: 1012.6 mb]
Winds: from the NNE (30 degrees) at 13 MPH (11 knots; 5.7 m/s)
Visibility: 10 or more miles (16+ km)
Ceiling: 800 feet AGL
Clouds: broken clouds at 800 feet AGL
overcast cloud deck at 1200 feet AGL
Weather: no significant weather observed at this time

METAR text: KORD 162151Z 03005KT 10SM OVC008 13/11 A2990 RMK AO2 SLP126 T01330111
Conditions at: KORD (CHICAGO O'HARE , IL, US) observed 2151 UTC 16 June 2019
Temperature: 13.3°C (56°F)
Dewpoint: 11.1°C (52°F) [RH = 87%]
Pressure (altimeter): 29.90 inches Hg (1012.6 mb)
[Sea-level pressure: 1012.6 mb]
Winds: from the NNE (30 degrees) at 6 MPH (5 knots; 2.6 m/s)
Visibility: 10 or more miles (16+ km)
Ceiling: 800 feet AGL
Clouds: overcast cloud deck at 800 feet AGL
Weather: no significant weather observed at this time

METAR text: KORD 162051Z 02009KT 10SM OVC006 13/11 A2989 RMK AO2 PRESRR SLP120 T01330111 51011
Conditions at: KORD (CHICAGO O'HARE , IL, US) observed 2051 UTC 16 June 2019
Temperature: 13.3°C (56°F)
Dewpoint: 11.1°C (52°F) [RH = 87%]
Pressure (altimeter): 29.89 inches Hg (1012.3 mb)
[Sea-level pressure: 1012.0 mb]
Winds: from the NNE (20 degrees) at 10 MPH (9 knots; 4.6 m/s)
Visibility: 10 or more miles (16+ km)
Ceiling: 600 feet AGL
Clouds: overcast cloud deck at 600 feet AGL
Weather: no significant weather observed at this time

METAR text: KORD 161951Z 03011KT 10SM OVC007 13/11 A2987 RMK AO2 SLP114 T01330111
Conditions at: KORD (CHICAGO O'HARE , IL, US) observed 1951 UTC 16 June 2019
Temperature: 13.3°C (56°F)
Dewpoint: 11.1°C (52°F) [RH = 87%]
Pressure (altimeter): 29.87 inches Hg (1011.6 mb)
[Sea-level pressure: 1011.4 mb]
Winds: from the NNE (30 degrees) at 13 MPH (11 knots; 5.7 m/s)
Visibility: 10 or more miles (16+ km)
Ceiling: 700 feet AGL
Clouds: overcast cloud deck at 700 feet AGL
Weather: no significant weather observed at this time

METAR text: KORD 161851Z 02010KT 10SM OVC009 14/12 A2987 RMK AO2 SLP117 T01440117
Conditions at: KORD (CHICAGO O'HARE , IL, US) observed 1851 UTC 16 June 2019
Temperature: 14.4°C (58°F)
Dewpoint: 11.7°C (53°F) [RH = 84%]
Pressure (altimeter): 29.87 inches Hg (1011.6 mb)
[Sea-level pressure: 1011.7 mb]
Winds: from the NNE (20 degrees) at 12 MPH (10 knots; 5.1 m/s)
Visibility: 10 or more miles (16+ km)
Ceiling: 900 feet AGL
Clouds: overcast cloud deck at 900 feet AGL
Weather: no significant weather observed at this time

METAR text: KORD 161751Z 03013KT 6SM BR OVC006 14/12 A2985 RMK AO2 SLP109 T01440122 10156 20139 51009
Conditions at: KORD (CHICAGO O'HARE , IL, US) observed 1751 UTC 16 June 2019
Temperature: 14.4°C (58°F)
Dewpoint: 12.2°C (54°F) [RH = 87%]
Pressure (altimeter): 29.85 inches Hg (1010.9 mb)
[Sea-level pressure: 1010.9 mb]
Winds: from the NNE (30 degrees) at 15 MPH (13 knots; 6.7 m/s)
Visibility: 6 miles (10 km)
Ceiling: 600 feet AGL
Clouds: overcast cloud deck at 600 feet AGL
Weather: BR  (mist)

METAR text: KORD 161741Z 03012KT 6SM BR OVC006 15/13 A2985 RMK AO2 T01500128
Conditions at: KORD (CHICAGO O'HARE , IL, US) observed 1741 UTC 16 June 2019
Temperature: 15.0°C (59°F)
Dewpoint: 12.8°C (55°F) [RH = 87%]
Pressure (altimeter): 29.85 inches Hg (1010.9 mb)
Winds: from the NNE (30 degrees) at 14 MPH (12 knots; 6.2 m/s)
Visibility: 6 miles (10 km)
Ceiling: 600 feet AGL
Clouds: overcast cloud deck at 600 feet AGL
Weather: BR  (mist)

METAR text: KORD 161710Z 01006KT 5SM BR OVC004 15/13 A2985 RMK AO2 T01500133 $
Conditions at: KORD (CHICAGO O'HARE , IL, US) observed 1710 UTC 16 June 2019
Temperature: 15.0°C (59°F)
Dewpoint: 13.3°C (56°F) [RH = 90%]
Pressure (altimeter): 29.85 inches Hg (1010.9 mb)
Winds: from the N (10 degrees) at 7 MPH (6 knots; 3.1 m/s)
Visibility: 5 miles ( 8 km)
Ceiling: 400 feet AGL
Clouds: overcast cloud deck at 400 feet AGL
Weather: BR  (mist)
SOME DATA ABOVE MAY BE INACCURATE!!!
"$" is an indication the sensor requires maintenance

METAR text: KORD 161651Z 03008KT 2 1/2SM BR OVC004 15/13 A2984 RMK AO2 SLP106 T01500133 $
Conditions at: KORD (CHICAGO O'HARE , IL, US) observed 1651 UTC 16 June 2019
Temperature: 15.0°C (59°F)
Dewpoint: 13.3°C (56°F) [RH = 90%]
Pressure (altimeter): 29.84 inches Hg (1010.6 mb)
[Sea-level pressure: 1010.6 mb]
Winds: from the NNE (30 degrees) at 9 MPH (8 knots; 4.1 m/s)
Visibility: 2.50 miles (4.02 km)
Ceiling: 400 feet AGL
Clouds: overcast cloud deck at 400 feet AGL
Weather: BR  (mist)
SOME DATA ABOVE MAY BE INACCURATE!!!
"$" is an indication the sensor requires maintenance

METAR text: KORD 161638Z 03008KT 2 1/2SM BR OVC004 15/13 A2984 RMK AO2 T01500133 $
Conditions at: KORD (CHICAGO O'HARE , IL, US) observed 1638 UTC 16 June 2019
Temperature: 15.0°C (59°F)
Dewpoint: 13.3°C (56°F) [RH = 90%]
Pressure (altimeter): 29.84 inches Hg (1010.6 mb)
Winds: from the NNE (30 degrees) at 9 MPH (8 knots; 4.1 m/s)
Visibility: 2.50 miles (4.02 km)
Ceiling: 400 feet AGL
Clouds: overcast cloud deck at 400 feet AGL
Weather: BR  (mist)
SOME DATA ABOVE MAY BE INACCURATE!!!
"$" is an indication the sensor requires maintenance

METAR text: KORD 161625Z 04007KT 2 1/2SM BR OVC005 14/13 A2985 RMK AO2 T01440133 $
Conditions at: KORD (CHICAGO O'HARE , IL, US) observed 1625 UTC 16 June 2019
Temperature: 14.4°C (58°F)
Dewpoint: 13.3°C (56°F) [RH = 93%]
Pressure (altimeter): 29.85 inches Hg (1010.9 mb)
Winds: from the NE (40 degrees) at 8 MPH (7 knots; 3.6 m/s)
Visibility: 2.50 miles (4.02 km)
Ceiling: 500 feet AGL
Clouds: overcast cloud deck at 500 feet AGL
Weather: BR  (mist)
SOME DATA ABOVE MAY BE INACCURATE!!!
"$" is an indication the sensor requires maintenance

METAR text: KORD 161551Z 03008KT 2 1/2SM BR OVC004 14/13 A2985 RMK AO2 SLP108 T01440133 $
Conditions at: KORD (CHICAGO O'HARE , IL, US) observed 1551 UTC 16 June 2019
Temperature: 14.4°C (58°F)
Dewpoint: 13.3°C (56°F) [RH = 93%]
Pressure (altimeter): 29.85 inches Hg (1010.9 mb)
[Sea-level pressure: 1010.8 mb]
Winds: from the NNE (30 degrees) at 9 MPH (8 knots; 4.1 m/s)
Visibility: 2.50 miles (4.02 km)
Ceiling: 400 feet AGL
Clouds: overcast cloud deck at 400 feet AGL
Weather: BR  (mist)
SOME DATA ABOVE MAY BE INACCURATE!!!
"$" is an indication the sensor requires maintenance

METAR text: KORD 161510Z 03009KT 2SM BR OVC003 14/13 A2984 RMK AO2 T01390133 $
Conditions at: KORD (CHICAGO O'HARE , IL, US) observed 1510 UTC 16 June 2019
Temperature: 13.9°C (57°F)
Dewpoint: 13.3°C (56°F) [RH = 96%]
Pressure (altimeter): 29.84 inches Hg (1010.6 mb)
Winds: from the NNE (30 degrees) at 10 MPH (9 knots; 4.6 m/s)
Visibility: 2.00 miles (3.22 km)
Ceiling: 300 feet AGL
Clouds: overcast cloud deck at 300 feet AGL
Weather: BR  (mist)
SOME DATA ABOVE MAY BE INACCURATE!!!
"$" is an indication the sensor requires maintenance

METAR text: KORD 161451Z 01010KT 1 1/2SM BR OVC003 14/13 A2982 RMK AO2 SLP099 T01390133 53014 $
Conditions at: KORD (CHICAGO O'HARE , IL, US) observed 1451 UTC 16 June 2019
Temperature: 13.9°C (57°F)
Dewpoint: 13.3°C (56°F) [RH = 96%]
Pressure (altimeter): 29.82 inches Hg (1009.9 mb)
[Sea-level pressure: 1009.9 mb]
Winds: from the N (10 degrees) at 12 MPH (10 knots; 5.1 m/s)
Visibility: 1.50 miles (2.41 km)
Ceiling: 300 feet AGL
Clouds: overcast cloud deck at 300 feet AGL
Weather: BR  (mist)
SOME DATA ABOVE MAY BE INACCURATE!!!
"$" is an indication the sensor requires maintenance

METAR text: KORD 161443Z 02009KT 1 1/2SM BR OVC003 14/14 A2982 RMK AO2 T01440139 $
Conditions at: KORD (CHICAGO O'HARE , IL, US) observed 1443 UTC 16 June 2019
Temperature: 14.4°C (58°F)
Dewpoint: 13.9°C (57°F) [RH = 97%]
Pressure (altimeter): 29.82 inches Hg (1009.9 mb)
Winds: from the NNE (20 degrees) at 10 MPH (9 knots; 4.6 m/s)
Visibility: 1.50 miles (2.41 km)
Ceiling: 300 feet AGL
Clouds: overcast cloud deck at 300 feet AGL
Weather: BR  (mist)
SOME DATA ABOVE MAY BE INACCURATE!!!
"$" is an indication the sensor requires maintenance

METAR text: KORD 161415Z 03008KT 1SM R10L/5500VP6000FT BR OVC002 14/14 A2980 RMK AO2 T01440139 $
Conditions at: KORD (CHICAGO O'HARE , IL, US) observed 1415 UTC 16 June 2019
Temperature: 14.4°C (58°F)
Dewpoint: 13.9°C (57°F) [RH = 97%]
Pressure (altimeter): 29.80 inches Hg (1009.2 mb)
Winds: from the NNE (30 degrees) at 9 MPH (8 knots; 4.1 m/s)
Visibility: 1.00 miles (1.61 km)
Ceiling: 200 feet AGL
Clouds: overcast cloud deck at 200 feet AGL
Weather: BR  (mist)
SOME DATA ABOVE MAY BE INACCURATE!!!
"$" is an indication the sensor requires maintenance

METAR text: KORD 161351Z 01007KT 3/4SM R10L/2800VP6000FT BR VV002 14/14 A2980 RMK AO2 SLP090 T01440144 $
Conditions at: KORD (CHICAGO O'HARE , IL, US) observed 1351 UTC 16 June 2019
Temperature: 14.4°C (58°F)
Dewpoint: 14.4°C (58°F) [RH = 100%]
Pressure (altimeter): 29.80 inches Hg (1009.2 mb)
[Sea-level pressure: 1009.0 mb]
Winds: from the N (10 degrees) at 8 MPH (7 knots; 3.6 m/s)
Visibility: 0.75 miles (1.21 km)
Ceiling: indefinite ceiling with vertical visibility of 200 feet AGL
Clouds: obscured sky
Weather: BR  (mist)
SOME DATA ABOVE MAY BE INACCURATE!!!
"$" is an indication the sensor requires maintenance

METAR text: KORD 161300Z 34007KT 3/4SM R10L/3000VP6000FT BR OVC002 14/14 A2978 RMK AO2 T01440144 $
Conditions at: KORD (CHICAGO O'HARE , IL, US) observed 1300 UTC 16 June 2019
Temperature: 14.4°C (58°F)
Dewpoint: 14.4°C (58°F) [RH = 100%]
Pressure (altimeter): 29.78 inches Hg (1008.5 mb)
Winds: from the NNW (340 degrees) at 8 MPH (7 knots; 3.6 m/s)
Visibility: 0.75 miles (1.21 km)
Ceiling: 200 feet AGL
Clouds: overcast cloud deck at 200 feet AGL
Weather: BR  (mist)
SOME DATA ABOVE MAY BE INACCURATE!!!
"$" is an indication the sensor requires maintenance

METAR text: KORD 161251Z 34006KT 1SM R10L/3500V5500FT BR OVC003 14/14 A2979 RMK AO2 SLP086 T01440144 $
Conditions at: KORD (CHICAGO O'HARE , IL, US) observed 1251 UTC 16 June 2019
Temperature: 14.4°C (58°F)
Dewpoint: 14.4°C (58°F) [RH = 100%]
Pressure (altimeter): 29.79 inches Hg (1008.9 mb)
[Sea-level pressure: 1008.6 mb]
Winds: from the NNW (340 degrees) at 7 MPH (6 knots; 3.1 m/s)
Visibility: 1.00 miles (1.61 km)
Ceiling: 300 feet AGL
Clouds: overcast cloud deck at 300 feet AGL
Weather: BR  (mist)
SOME DATA ABOVE MAY BE INACCURATE!!!
"$" is an indication the sensor requires maintenance

METAR text: KORD 161234Z 35005KT 1SM R10L/3500VP6000FT BR OVC003 14/14 A2978 RMK AO2 T01440144 $
Conditions at: KORD (CHICAGO O'HARE , IL, US) observed 1234 UTC 16 June 2019
Temperature: 14.4°C (58°F)
Dewpoint: 14.4°C (58°F) [RH = 100%]
Pressure (altimeter): 29.78 inches Hg (1008.5 mb)
Winds: from the N (350 degrees) at 6 MPH (5 knots; 2.6 m/s)
Visibility: 1.00 miles (1.61 km)
Ceiling: 300 feet AGL
Clouds: overcast cloud deck at 300 feet AGL
Weather: BR  (mist)
SOME DATA ABOVE MAY BE INACCURATE!!!
"$" is an indication the sensor requires maintenance

METAR text: KORD 161151Z 36005KT 2SM BR OVC003 14/14 A2978 RMK AO2 SLP083 60008 70009 T01390139 10139 20122 53023 $
Conditions at: KORD (CHICAGO O'HARE , IL, US) observed 1151 UTC 16 June 2019
Temperature: 13.9°C (57°F)
Dewpoint: 13.9°C (57°F) [RH = 100%]
Pressure (altimeter): 29.78 inches Hg (1008.5 mb)
[Sea-level pressure: 1008.3 mb]
Winds: from the N (360 degrees) at 6 MPH (5 knots; 2.6 m/s)
Visibility: 2.00 miles (3.22 km)
Ceiling: 300 feet AGL
Clouds: overcast cloud deck at 300 feet AGL
Weather: BR  (mist)
SOME DATA ABOVE MAY BE INACCURATE!!!
"$" is an indication the sensor requires maintenance

METAR text: KORD 161139Z 35004KT 2SM BR OVC002 14/14 A2978 RMK AO2 T01390139 $
Conditions at: KORD (CHICAGO O'HARE , IL, US) observed 1139 UTC 16 June 2019
Temperature: 13.9°C (57°F)
Dewpoint: 13.9°C (57°F) [RH = 100%]
Pressure (altimeter): 29.78 inches Hg (1008.5 mb)
Winds: from the N (350 degrees) at 5 MPH (4 knots; 2.1 m/s)
Visibility: 2.00 miles (3.22 km)
Ceiling: 200 feet AGL
Clouds: overcast cloud deck at 200 feet AGL
Weather: BR  (mist)
SOME DATA ABOVE MAY BE INACCURATE!!!
"$" is an indication the sensor requires maintenance

METAR text: KORD 161051Z 01007KT 1SM R10L/P6000FT BR OVC002 13/13 A2975 RMK AO2 SLP073 T01330128 $
Conditions at: KORD (CHICAGO O'HARE , IL, US) observed 1051 UTC 16 June 2019
Temperature: 13.3°C (56°F)
Dewpoint: 12.8°C (55°F) [RH = 97%]
Pressure (altimeter): 29.75 inches Hg (1007.5 mb)
[Sea-level pressure: 1007.3 mb]
Winds: from the N (10 degrees) at 8 MPH (7 knots; 3.6 m/s)
Visibility: 1.00 miles (1.61 km)
Ceiling: 200 feet AGL
Clouds: overcast cloud deck at 200 feet AGL
Weather: BR  (mist)
SOME DATA ABOVE MAY BE INACCURATE!!!
"$" is an indication the sensor requires maintenance

METAR text: KORD 160951Z 02005KT 1SM R10L/P6000FT BR OVC002 13/13 A2974 RMK AO2 SLP068 T01280128 $
Conditions at: KORD (CHICAGO O'HARE , IL, US) observed 0951 UTC 16 June 2019
Temperature: 12.8°C (55°F)
Dewpoint: 12.8°C (55°F) [RH = 100%]
Pressure (altimeter): 29.74 inches Hg (1007.2 mb)
[Sea-level pressure: 1006.8 mb]
Winds: from the NNE (20 degrees) at 6 MPH (5 knots; 2.6 m/s)
Visibility: 1.00 miles (1.61 km)
Ceiling: 200 feet AGL
Clouds: overcast cloud deck at 200 feet AGL
Weather: BR  (mist)
SOME DATA ABOVE MAY BE INACCURATE!!!
"$" is an indication the sensor requires maintenance

METAR text: KORD 160907Z 01006KT 1SM R10L/P6000FT BR OVC002 12/12 A2971 RMK AO2 T01220122 $
Conditions at: KORD (CHICAGO O'HARE , IL, US) observed 0907 UTC 16 June 2019
Temperature: 12.2°C (54°F)
Dewpoint: 12.2°C (54°F) [RH = 100%]
Pressure (altimeter): 29.71 inches Hg (1006.2 mb)
Winds: from the N (10 degrees) at 7 MPH (6 knots; 3.1 m/s)
Visibility: 1.00 miles (1.61 km)
Ceiling: 200 feet AGL
Clouds: overcast cloud deck at 200 feet AGL
Weather: BR  (mist)
SOME DATA ABOVE MAY BE INACCURATE!!!
"$" is an indication the sensor requires maintenance

METAR text: KORD 160851Z 02007KT 4SM BR OVC003 12/12 A2971 RMK AO2 RAE20 SLP061 P0000 60008 T01220122 56015 $
Conditions at: KORD (CHICAGO O'HARE , IL, US) observed 0851 UTC 16 June 2019
Temperature: 12.2°C (54°F)
Dewpoint: 12.2°C (54°F) [RH = 100%]
Pressure (altimeter): 29.71 inches Hg (1006.2 mb)
[Sea-level pressure: 1006.1 mb]
Winds: from the NNE (20 degrees) at 8 MPH (7 knots; 3.6 m/s)
Visibility: 4 miles ( 6 km)
Ceiling: 300 feet AGL
Clouds: overcast cloud deck at 300 feet AGL
Weather: BR  (mist)
SOME DATA ABOVE MAY BE INACCURATE!!!
"$" is an indication the sensor requires maintenance

Forecast for: KORD (CHICAGO O'HARE , IL, US)
Text: KORD 171737Z 1718/1824 04008KT P6SM OVC020
Forecast period: 1800 to 2100 UTC 17 June 2019
Forecast type: FROM: standard forecast or significant change
Winds: from the NE (40 degrees) at 9 MPH (8 knots; 4.1 m/s)
Visibility: 6 or more miles 10+ km)
Ceiling: 2000 feet AGL
Clouds: overcast cloud deck at 2000 feet AGL
Weather: no significant weather forecast for this period
Text: FM172100 04007KT P6SM BKN030
Forecast period: 2100 UTC 17 June 2019 to 0600 UTC 18 June 2019
Forecast type: FROM: standard forecast or significant change
Winds: from the NE (40 degrees) at 8 MPH (7 knots; 3.6 m/s)
Visibility: 6 or more miles 10+ km)
Ceiling: 3000 feet AGL
Clouds: broken clouds at 3000 feet AGL
Weather: no significant weather forecast for this period
Text: FM180600 02003KT 3SM BR FEW004 SCT007 OVC010
Forecast period: 0600 to 1700 UTC 18 June 2019
Forecast type: FROM: standard forecast or significant change
Winds: from the NNE (20 degrees) at 3 MPH (3 knots; 1.5 m/s)
Visibility: 3 miles (5 km)
Ceiling: 1000 feet AGL
Clouds: few clouds at 400 feet AGL
scattered clouds at 700 feet AGL
overcast cloud deck at 1000 feet AGL
Weather: BR  (mist)
Text: FM181700 06005KT P6SM BKN025
Forecast period: 1700 to 2000 UTC 18 June 2019
Forecast type: FROM: standard forecast or significant change
Winds: from the ENE (60 degrees) at 6 MPH (5 knots; 2.6 m/s)
Visibility: 6 or more miles 10+ km)
Ceiling: 2500 feet AGL
Clouds: broken clouds at 2500 feet AGL
Weather: no significant weather forecast for this period
Text: FM182000 08006KT P6SM SCT025
Forecast period: 2000 UTC 18 June 2019 to 0000 UTC 19 June 2019
Forecast type: FROM: standard forecast or significant change
Winds: from the E (80 degrees) at 7 MPH (6 knots; 3.1 m/s)
Visibility: 6 or more miles 10+ km)
Ceiling: at least 12,000 feet AGL
Clouds: scattered clouds at 2500 feet AGL
Weather: no significant weather forecast for this period